Time;durP1;ratioP1;P1;durP2;ratioP2;P2;SDS_P1;SDS_P2;PMS_P1;PMS_P2;Temp;Humidity;BMP_temperature;BMP_pressure;BME280_temperature;BME280_humidity;BME280_pressure;Samples;Min_cycle;Max_cycle;Signal;HPM_P1;HPM_P2
2022/04/05 00:00:07;;;;;;;;;;;;;;;6.34;52.37;99339.44;4355312;32;34549;-91
2022/04/05 00:02:35;;;;;;;;;;;;;;;6.59;51.58;99334.56;4353485;32;32623;-91
2022/04/05 00:05:03;;;;;;;;;;;;;;;6.59;51.41;99328.44;4353503;32;33852;-91
2022/04/05 00:07:31;;;;;;;;;;;;;;;6.13;52.98;99325.34;4354079;32;35196;-90
2022/04/05 00:09:59;;;;;;;;;;;;;;;6.14;52.74;99327.88;4367492;32;33823;-91
2022/04/05 00:12:27;;;;;;;;;;;;;;;5.99;53.25;99317.75;4367096;32;33401;-90
2022/04/05 00:14:56;;;;;;;;;;;;;;;5.75;54.26;99322.37;4367130;32;33590;-91
2022/04/05 00:17:23;;;;;;;;;;;;;;;5.90;53.53;99314.09;4354734;32;34054;-90
2022/04/05 00:19:51;;;;;;;;;;;;;;;5.99;53.30;99304.56;4367700;32;34483;-90
2022/04/05 00:22:19;;;;;;;;;;;;;;;6.02;53.08;99315.69;4367428;32;34261;-90
2022/04/05 00:24:46;;;;;;;;;;;;;;;6.04;52.93;99315.56;4366229;32;32893;-91
2022/04/05 00:27:14;;;;;;;;;;;;;;;5.98;53.08;99311.62;4353674;32;34346;-90
2022/04/05 00:29:41;;;;;;;;;;;;;;;5.89;53.25;99312.38;4354937;32;34496;-90
2022/04/05 00:32:10;;;;;;;;;;;;;;;5.81;53.56;99309.56;4352650;32;32852;-91
2022/04/05 00:34:37;;;;;;;;;;;;;;;5.93;53.38;99313.81;4354278;32;34377;-91
2022/04/05 00:37:06;;;;;;;;;;;;;;;5.82;54.00;99305.09;4365595;32;34099;-92
2022/04/05 00:39:34;;;;;;;;;;;;;;;5.71;54.62;99303.31;4355034;32;33390;-91
2022/04/05 00:42:02;;;;;;;;;;;;;;;5.77;54.56;99300.19;4365927;32;33176;-91
2022/04/05 00:44:30;;;;;;;;;;;;;;;5.73;54.54;99295.28;4365929;32;34736;-91
2022/04/05 00:46:58;;;;;;;;;;;;;;;5.74;55.00;99297.78;4365618;32;34178;-91
2022/04/05 00:49:27;;;;;;;;;;;;;;;5.96;54.29;99291.63;4353243;32;34209;-90
2022/04/05 00:51:54;;;;;;;;;;;;;;;6.01;54.14;99292.91;4355152;32;33609;-91
2022/04/05 00:54:22;;;;;;;;;;;;;;;6.06;54.12;99284.59;4366081;32;34146;-91
2022/04/05 00:56:50;;;;;;;;;;;;;;;6.08;54.35;99278.19;4377932;32;33707;-90
2022/04/05 00:59:17;;;;;;;;;;;;;;;6.10;54.30;99281.56;4365423;32;35387;-91
2022/04/05 01:01:45;;;;;;;;;;;;;;;5.99;54.76;99281.66;4353517;32;33071;-90
2022/04/05 01:04:13;;;;;;;;;;;;;;;6.07;54.57;99279.16;4353190;32;33123;-90
2022/04/05 01:06:45;;;;;;;;;;;;;;;6.04;54.76;99287.38;4355708;32;34357;-90
2022/04/05 01:09:13;;;;;;;;;;;;;;;6.14;54.42;99280.34;4373472;32;33055;-89
2022/04/05 01:11:40;;;;;;;;;;;;;;;6.04;54.74;99281.22;4354539;32;33157;-90
2022/04/05 01:14:08;;;;;;;;;;;;;;;5.98;54.51;99276.47;4366989;32;33323;-91
2022/04/05 01:17:00;;;;;;;;;;;;;;;5.85;55.37;99279.31;4365153;32;34604;-90
2022/04/05 01:19:29;;;;;;;;;;;;;;;5.74;55.77;99276.69;4354537;32;34067;-91
2022/04/05 01:21:57;;;;;;;;;;;;;;;5.92;55.41;99269.91;4366738;32;31344;-90
2022/04/05 01:24:26;;;;;;;;;;;;;;;6.14;54.73;99272.41;4353016;32;32371;-92
2022/04/05 01:26:56;;;;;;;;;;;;;;;6.00;55.15;99274.53;4365544;32;34218;-91
2022/04/05 01:29:25;;;;;;;;;;;;;;;6.18;54.53;99271.22;4354435;32;34253;-91
2022/04/05 01:32:00;;;;;;;;;;;;;;;6.21;54.43;99264.81;4364784;32;33282;-91
2022/04/05 01:34:28;;;;;;;;;;;;;;;6.13;54.86;99262.81;4365111;32;34585;-90
2022/04/05 01:37:05;;;;;;;;;;;;;;;6.11;55.06;99263.91;4354298;32;35741;-90
2022/04/05 01:39:34;;;;;;;;;;;;;;;6.21;54.70;99265.66;4365204;32;33522;-91
2022/04/05 01:42:09;;;;;;;;;;;;;;;6.30;54.35;99267.53;4354105;32;33184;-90
2022/04/05 01:44:37;;;;;;;;;;;;;;;6.20;54.51;99266.63;4353561;32;32062;-91
2022/04/05 01:47:15;;;;;;;;;;;;;;;6.29;54.60;99271.13;4364861;32;35286;-90
2022/04/05 01:49:44;;;;;;;;;;;;;;;6.28;54.52;99272.09;4340162;32;33949;-90
2022/04/05 01:52:11;;;;;;;;;;;;;;;6.29;54.61;99260.56;4352560;32;32084;-91
2022/04/05 01:54:43;;;;;;;;;;;;;;;6.36;54.31;99259.06;4352735;32;33046;-92
2022/04/05 01:57:10;;;;;;;;;;;;;;;6.39;54.50;99260.59;4365047;32;35838;-91
2022/04/05 01:59:39;;;;;;;;;;;;;;;6.26;54.80;99260.81;4352440;32;35175;-90
2022/04/05 02:02:08;;;;;;;;;;;;;;;6.43;54.52;99260.22;4353901;32;33371;-91
2022/04/05 02:04:37;;;;;;;;;;;;;;;6.14;55.66;99247.84;4352321;32;33382;-89
2022/04/05 02:07:09;;;;;;;;;;;;;;;6.14;55.40;99251.28;4353591;32;35730;-91
2022/04/05 02:09:37;;;;;;;;;;;;;;;6.43;54.43;99251.47;4364962;32;34346;-91
2022/04/05 02:12:05;;;;;;;;;;;;;;;6.16;55.22;99249.34;4352127;32;32457;-90
2022/04/05 02:14:34;;;;;;;;;;;;;;;6.36;54.73;99239.75;4377186;32;33715;-91
2022/04/05 02:17:03;;;;;;;;;;;;;;;6.34;54.83;99242.50;4352670;32;34808;-91
2022/04/05 02:19:41;;;;;;;;;;;;;;;6.42;54.79;99255.91;4354723;32;33993;-89
2022/04/05 02:22:11;;;;;;;;;;;;;;;6.46;54.62;99246.75;4353830;32;33488;-90
2022/04/05 02:24:39;;;;;;;;;;;;;;;6.45;54.50;99245.06;4353805;32;33953;-92
2022/04/05 02:27:07;;;;;;;;;;;;;;;6.58;54.09;99240.41;4353559;32;34438;-90
2022/04/05 02:29:36;;;;;;;;;;;;;;;6.56;54.36;99245.00;4364615;32;33902;-90
2022/04/05 02:32:04;;;;;;;;;;;;;;;6.56;54.41;99242.34;4353495;32;34001;-91
2022/04/05 02:34:33;;;;;;;;;;;;;;;6.62;54.25;99236.50;4364334;32;35364;-91
2022/04/05 02:37:02;;;;;;;;;;;;;;;6.62;54.42;99230.41;4364713;32;34268;-92
2022/04/05 02:39:30;;;;;;;;;;;;;;;6.76;53.90;99227.38;4364527;32;34451;-90
2022/04/05 02:41:59;;;;;;;;;;;;;;;6.76;54.02;99225.59;4354578;32;33696;-90
2022/04/05 02:44:27;;;;;;;;;;;;;;;6.79;54.03;99221.84;4364373;32;33145;-91
2022/04/05 02:47:04;;;;;;;;;;;;;;;6.76;53.93;99222.09;4363626;32;34534;-90
2022/04/05 02:49:33;;;;;;;;;;;;;;;6.75;54.00;99226.56;4353631;32;34137;-91
2022/04/05 02:52:02;;;;;;;;;;;;;;;6.81;53.98;99211.97;4364378;32;33051;-90
2022/04/05 02:54:31;;;;;;;;;;;;;;;6.89;53.75;99214.78;4353416;32;34435;-92
2022/04/05 02:57:00;;;;;;;;;;;;;;;6.91;53.81;99215.47;4364447;32;34103;-89
2022/04/05 02:59:28;;;;;;;;;;;;;;;6.95;53.81;99207.13;4355375;32;34450;-91
2022/04/05 03:01:56;;;;;;;;;;;;;;;7.01;53.67;99218.97;4355208;32;31753;-90
2022/04/05 03:04:29;;;;;;;;;;;;;;;7.03;53.59;99209.09;4365940;32;34179;-90
2022/04/05 03:06:57;;;;;;;;;;;;;;;6.85;53.85;99200.16;4355171;32;34893;-90
2022/04/05 03:09:24;;;;;;;;;;;;;;;6.91;53.91;99199.63;4366329;32;32957;-91
2022/04/05 03:11:57;;;;;;;;;;;;;;;6.60;55.21;99198.81;4366295;32;33150;-90
2022/04/05 03:14:27;;;;;;;;;;;;;;;6.87;54.48;99199.03;4355616;32;33322;-91
2022/04/05 03:16:55;;;;;;;;;;;;;;;6.75;55.12;99197.50;4353686;32;37305;-89
2022/04/05 03:19:23;;;;;;;;;;;;;;;6.95;54.27;99191.28;4355771;32;34760;-90
2022/04/05 03:21:52;;;;;;;;;;;;;;;6.65;55.27;99188.69;4355357;32;32940;-90
2022/04/05 03:24:20;;;;;;;;;;;;;;;6.92;54.39;99182.78;4378862;32;33241;-91
2022/04/05 03:26:49;;;;;;;;;;;;;;;6.78;54.66;99184.00;4355361;32;35786;-90
2022/04/05 03:29:22;;;;;;;;;;;;;;;6.90;54.20;99190.00;4370327;32;34593;-92
2022/04/05 03:31:52;;;;;;;;;;;;;;;6.94;54.31;99183.47;4355290;32;32877;-91
2022/04/05 03:34:24;;;;;;;;;;;;;;;6.96;54.39;99178.87;4365377;32;32649;-90
2022/04/05 03:36:55;;;;;;;;;;;;;;;7.01;54.21;99185.41;4365899;32;35028;-91
2022/04/05 03:39:22;;;;;;;;;;;;;;;6.92;54.68;99183.59;4366432;32;33950;-92
2022/04/05 03:41:50;;;;;;;;;;;;;;;6.95;54.54;99180.69;4356276;32;33412;-90
2022/04/05 03:44:18;;;;;;;;;;;;;;;6.90;54.63;99176.78;4357693;32;34785;-90
2022/04/05 03:46:47;;;;;;;;;;;;;;;7.11;54.13;99177.50;4355798;32;35732;-90
2022/04/05 03:49:16;;;;;;;;;;;;;;;7.13;53.97;99176.41;4379056;32;34647;-91
2022/04/05 03:51:50;;;;;;;;;;;;;;;7.15;53.92;99178.91;4381995;32;31468;-90
2022/04/05 03:54:18;;;;;;;;;;;;;;;7.16;53.88;99181.41;4356848;32;33110;-89
2022/04/05 03:56:46;;;;;;;;;;;;;;;7.21;53.76;99175.72;4379206;32;34761;-91
2022/04/05 03:59:16;;;;;;;;;;;;;;;7.19;53.87;99170.53;4377654;32;33938;-90
2022/04/05 04:01:47;;;;;;;;;;;;;;;7.15;54.08;99178.91;4378064;32;32675;-90
2022/04/05 04:04:17;;;;;;;;;;;;;;;7.13;54.23;99167.63;4377556;32;34560;-90
2022/04/05 04:06:47;;;;;;;;;;;;;;;7.09;54.49;99171.53;4354923;32;34656;-90
2022/04/05 04:09:36;;;;;;;;;;;;;;;6.97;54.51;99173.47;4354324;32;34032;-89
2022/04/05 04:12:05;;;;;;;;;;;;;;;7.14;54.23;99171.94;4354315;32;34375;-91
2022/04/05 04:14:34;;;;;;;;;;;;;;;7.25;53.84;99177.94;4378147;32;32499;-91
2022/04/05 04:17:05;;;;;;;;;;;;;;;7.23;53.97;99171.09;4355758;32;35333;-90
2022/04/05 04:19:37;;;;;;;;;;;;;;;7.21;53.95;99175.72;4377485;32;33816;-90
2022/04/05 04:22:07;;;;;;;;;;;;;;;7.09;54.35;99171.53;4365273;32;32591;-91
2022/04/05 04:24:35;;;;;;;;;;;;;;;7.28;53.90;99161.78;4355001;32;33929;-91
2022/04/05 04:27:03;;;;;;;;;;;;;;;7.31;53.76;99169.47;4358365;32;34825;-91
2022/04/05 04:29:32;;;;;;;;;;;;;;;7.20;54.14;99159.03;4378037;32;35317;-90
2022/04/05 04:31:59;;;;;;;;;;;;;;;7.24;54.09;99168.34;4377046;32;33874;-93
2022/04/05 04:34:41;;;;;;;;;;;;;;;7.41;53.70;99169.44;4375573;32;33599;-88
2022/04/05 04:37:14;;;;;;;;;;;;;;;7.34;53.87;99174.47;4378153;32;36004;-89
2022/04/05 04:39:44;;;;;;;;;;;;;;;7.52;53.45;99166.66;4377163;32;34724;-86
2022/04/05 04:42:12;;;;;;;;;;;;;;;7.52;53.37;99172.78;4378391;32;32347;-90
2022/04/05 04:44:39;;;;;;;;;;;;;;;7.59;53.17;99171.25;4377670;32;34675;-89
2022/04/05 04:47:07;;;;;;;;;;;;;;;7.64;53.05;99170.84;4354707;32;35069;-87
2022/04/05 04:49:34;;;;;;;;;;;;;;;7.44;53.53;99177.13;4378029;32;35480;-86
2022/04/05 04:52:02;;;;;;;;;;;;;;;7.55;53.40;99175.16;4378102;32;32443;-87
2022/04/05 04:54:30;;;;;;;;;;;;;;;7.63;53.20;99185.06;4354723;32;34583;-87
2022/04/05 04:56:57;;;;;;;;;;;;;;;7.67;53.33;99176.69;4354491;32;36257;-88
2022/04/05 04:59:24;;;;;;;;;;;;;;;7.75;53.06;99173.34;4367125;32;33726;-85
2022/04/05 05:01:52;;;;;;;;;;;;;;;7.80;53.00;99171.94;4379048;32;32512;-88
2022/04/05 05:04:20;;;;;;;;;;;;;;;7.83;52.94;99173.47;4379237;32;34931;-86
2022/04/05 05:06:47;;;;;;;;;;;;;;;7.87;52.78;99172.19;4356119;32;34447;-88
2022/04/05 05:09:14;;;;;;;;;;;;;;;7.87;52.87;99177.47;4379278;32;33700;-85
2022/04/05 05:11:42;;;;;;;;;;;;;;;7.85;52.96;99163.56;4378849;32;33160;-85
2022/04/05 05:14:09;;;;;;;;;;;;;;;7.97;53.12;99168.56;4365508;32;33763;-87
2022/04/05 05:16:37;;;;;;;;;;;;;;;8.12;52.62;99174.22;4354679;32;34682;-88
2022/04/05 05:19:05;;;;;;;;;;;;;;;7.90;53.24;99164.78;4377891;32;35319;-89
2022/04/05 05:21:32;;;;;;;;;;;;;;;8.14;52.93;99167.81;4354014;32;33700;-88
2022/04/05 05:24:00;;;;;;;;;;;;;;;8.12;52.96;99161.78;4377844;32;34639;-90
2022/04/05 05:26:28;;;;;;;;;;;;;;;8.07;53.42;99164.06;4354532;32;35260;-87
2022/04/05 05:28:55;;;;;;;;;;;;;;;7.89;52.82;99165.78;4377626;32;34933;-87
2022/04/05 05:31:22;;;;;;;;;;;;;;;7.94;52.10;99166.16;4377714;32;33999;-86
2022/04/05 05:33:50;;;;;;;;;;;;;;;7.65;53.39;99167.22;4354725;32;34835;-90
2022/04/05 05:36:18;;;;;;;;;;;;;;;7.91;52.50;99163.00;4354321;32;34839;-87
2022/04/05 05:38:45;;;;;;;;;;;;;;;8.00;53.05;99167.44;4377201;32;34900;-86
2022/04/05 05:41:12;;;;;;;;;;;;;;;8.20;52.67;99167.25;4377963;32;32786;-88
2022/04/05 05:43:41;;;;;;;;;;;;;;;8.33;52.39;99166.94;4355380;32;34707;-88
2022/04/05 05:46:08;;;;;;;;;;;;;;;8.45;52.27;99162.13;4366694;32;33869;-88
2022/04/05 05:48:36;;;;;;;;;;;;;;;8.44;52.38;99168.41;4366111;32;33738;-88
2022/04/05 05:51:05;;;;;;;;;;;;;;;8.45;52.27;99175.38;4355028;32;32669;-90
2022/04/05 05:53:33;;;;;;;;;;;;;;;8.64;51.96;99180.63;4377460;32;33781;-88
2022/04/05 05:56:00;;;;;;;;;;;;;;;8.68;51.95;99179.31;4377636;32;35410;-93
2022/04/05 05:58:30;;;;;;;;;;;;;;;8.65;52.11;99192.03;4377571;32;35345;-91
2022/04/05 06:00:58;;;;;;;;;;;;;;;8.70;51.57;99190.63;4377878;32;34129;-89
2022/04/05 06:03:26;;;;;;;;;;;;;;;8.84;51.61;99191.94;4354810;32;34915;-88
2022/04/05 06:05:54;;;;;;;;;;;;;;;8.89;51.31;99198.47;4379752;32;36007;-91
2022/04/05 06:08:21;;;;;;;;;;;;;;;9.00;51.12;99190.31;4380203;32;34265;-88
2022/04/05 06:10:49;;;;;;;;;;;;;;;9.15;51.01;99194.13;4379252;32;32864;-90
2022/04/05 06:13:16;;;;;;;;;;;;;;;9.24;50.86;99190.56;4379741;32;34057;-87
2022/04/05 06:15:44;;;;;;;;;;;;;;;9.14;50.64;99192.47;4379886;32;34581;-90
2022/04/05 06:18:12;;;;;;;;;;;;;;;9.31;50.04;99194.31;4367491;32;33331;-90
2022/04/05 06:20:39;;;;;;;;;;;;;;;8.98;50.21;99194.94;4368808;32;32685;-88
2022/04/05 06:23:07;;;;;;;;;;;;;;;9.07;50.24;99199.34;4379690;32;34072;-88
2022/04/05 06:25:36;;;;;;;;;;;;;;;9.20;49.34;99199.00;4366835;32;34192;-90
2022/04/05 06:28:04;;;;;;;;;;;;;;;9.05;51.33;99195.16;4386266;32;33403;-88
2022/04/05 06:30:35;;;;;;;;;;;;;;;9.25;49.69;99192.25;4379820;32;33612;-88
2022/04/05 06:33:03;;;;;;;;;;;;;;;9.05;50.67;99197.81;4386183;32;33959;-92
2022/04/05 06:35:30;;;;;;;;;;;;;;;9.34;49.96;99179.88;4382208;32;34441;-88
2022/04/05 06:37:58;;;;;;;;;;;;;;;9.69;48.71;99188.69;4382029;32;34128;-87
2022/04/05 06:40:26;;;;;;;;;;;;;;;9.89;48.72;99178.69;4382137;32;32266;-90
2022/04/05 06:42:53;;;;;;;;;;;;;;;9.96;48.88;99182.41;4382094;32;33926;-89
2022/04/05 06:45:22;;;;;;;;;;;;;;;9.97;48.25;99184.91;4370952;32;35221;-89
2022/04/05 06:47:50;;;;;;;;;;;;;;;9.71;50.06;99189.34;4371121;32;35296;-87
2022/04/05 06:50:20;;;;;;;;;;;;;;;9.91;49.66;99190.03;4382191;32;33507;-89
2022/04/05 06:52:48;;;;;;;;;;;;;;;10.06;49.50;99184.03;4381670;32;32827;-87
2022/04/05 06:55:16;;;;;;;;;;;;;;;10.28;48.19;99180.00;4369293;32;35221;-87
2022/04/05 06:57:44;;;;;;;;;;;;;;;10.35;48.03;99181.03;4369245;32;34602;-87
2022/04/05 07:00:11;;;;;;;;;;;;;;;10.47;48.75;99187.75;4369282;32;32668;-87
2022/04/05 07:02:39;;;;;;;;;;;;;;;10.58;49.05;99180.31;4370822;32;34027;-87
2022/04/05 07:05:07;;;;;;;;;;;;;;;10.78;47.93;99178.25;4368206;32;34627;-92
2022/04/05 07:07:34;;;;;;;;;;;;;;;10.81;47.79;99172.59;4381170;32;34720;-89
2022/04/05 07:10:02;;;;;;;;;;;;;;;11.13;46.41;99181.53;4380983;32;32207;-92
2022/04/05 07:12:31;;;;;;;;;;;;;;;11.32;46.48;99175.91;4368564;32;32745;-92
2022/04/05 07:14:58;;;;;;;;;;;;;;;11.21;47.42;99186.06;4370840;32;34820;-88
2022/04/05 07:17:26;;;;;;;;;;;;;;;11.47;46.90;99183.09;4372274;32;33805;-89
2022/04/05 07:20:13;;;;;;;;;;;;;;;11.78;45.88;99184.16;4380393;32;32422;-87
2022/04/05 07:22:45;;;;;;;;;;;;;;;11.19;47.86;99183.53;4381966;32;33245;-91
2022/04/05 07:25:12;;;;;;;;;;;;;;;11.73;46.41;99169.66;4381947;32;35030;-90
2022/04/05 07:27:39;;;;;;;;;;;;;;;11.56;46.54;99170.63;4370614;32;34712;-85
2022/04/05 07:30:07;;;;;;;;;;;;;;;11.93;46.09;99165.66;4380699;32;33657;-85
2022/04/05 07:32:38;;;;;;;;;;;;;;;12.26;45.33;99176.09;4369453;32;34690;-87
2022/04/05 07:35:05;;;;;;;;;;;;;;;12.31;45.58;99164.94;4369610;32;36144;-86
2022/04/05 07:37:33;;;;;;;;;;;;;;;12.29;46.02;99153.59;4380440;32;34235;-88
2022/04/05 07:40:00;;;;;;;;;;;;;;;12.31;45.46;99163.13;4369591;32;33279;-86
2022/04/05 07:42:27;;;;;;;;;;;;;;;11.85;45.58;99152.34;4380753;32;32928;-88
2022/04/05 07:44:55;;;;;;;;;;;;;;;12.18;45.11;99152.12;4373041;32;35781;-85
2022/04/05 07:47:28;;;;;;;;;;;;;;;12.41;44.39;99155.75;4380755;32;34085;-88
2022/04/05 07:49:56;;;;;;;;;;;;;;;12.19;45.30;99164.44;4381851;32;33524;-89
2022/04/05 07:52:23;;;;;;;;;;;;;;;12.00;44.57;99166.66;4381611;32;34305;-92
2022/04/05 07:54:50;;;;;;;;;;;;;;;12.28;43.77;99175.94;4375053;32;34483;-91
2022/04/05 07:57:18;;;;;;;;;;;;;;;11.85;43.99;99174.50;4370504;32;34644;-89
2022/04/05 07:59:46;;;;;;;;;;;;;;;12.12;44.28;99168.78;4370217;32;32881;-91
2022/04/05 08:02:13;;;;;;;;;;;;;;;12.42;43.51;99169.91;4382097;32;33420;-93
2022/04/05 08:05:02;;;;;;;;;;;;;;;12.23;43.38;99168.47;4379124;32;33579;-89
2022/04/05 08:07:29;;;;;;;;;;;;;;;12.11;44.29;99167.12;4378453;32;33870;-88
2022/04/05 08:09:57;;;;;;;;;;;;;;;12.26;44.08;99165.44;4378787;32;33201;-91
2022/04/05 08:12:25;;;;;;;;;;;;;;;12.24;43.53;99169.28;4355829;32;34413;-88
2022/04/05 08:14:52;;;;;;;;;;;;;;;12.47;42.14;99164.91;4360259;32;34325;-93
2022/04/05 08:17:20;;;;;;;;;;;;;;;12.26;43.45;99165.44;4356095;32;33728;-89
2022/04/05 08:19:47;;;;;;;;;;;;;;;12.41;42.50;99160.25;4355415;32;32678;-90
2022/04/05 08:22:15;;;;;;;;;;;;;;;12.42;42.26;99161.91;4354878;32;34366;-92
2022/04/05 08:24:42;;;;;;;;;;;;;;;12.79;41.40;99165.63;4353495;32;33509;-89
2022/04/05 08:27:09;;;;;;;;;;;;;;;13.09;41.91;99159.50;4355446;32;34155;-90
2022/04/05 08:29:41;;;;;;;;;;;;;;;13.05;38.87;99166.16;4377721;32;33392;-87
2022/04/05 08:32:08;;;;;;;;;;;;;;;12.97;40.12;99165.38;4354923;32;33736;-89
2022/04/05 08:34:41;;;;;;;;;;;;;;;13.28;38.85;99168.88;4365002;32;35222;-91
2022/04/05 08:37:08;;;;;;;;;;;;;;;13.05;39.57;99168.03;4354919;32;35204;-90
2022/04/05 08:39:36;;;;;;;;;;;;;;;12.75;40.26;99155.47;4354338;32;32755;-90
2022/04/05 08:42:04;;;;;;;;;;;;;;;13.26;40.42;99162.87;4378208;32;33700;-90
2022/04/05 08:44:31;;;;;;;;;;;;;;;13.45;37.20;99165.09;4361139;32;35487;-89
2022/04/05 08:47:00;;;;;;;;;;;;;;;13.14;38.35;99162.44;4354673;32;34520;-89
2022/04/05 08:49:27;;;;;;;;;;;;;;;12.94;38.89;99155.87;4354629;32;33770;-90
2022/04/05 08:51:55;;;;;;;;;;;;;;;13.00;39.65;99160.53;4378022;32;33808;-88
2022/04/05 08:54:22;;;;;;;;;;;;;;;13.18;38.61;99150.41;4377812;32;35073;-90
2022/04/05 08:56:53;;;;;;;;;;;;;;;13.03;39.81;99159.38;4376906;32;34328;-90
2022/04/05 08:59:20;;;;;;;;;;;;;;;13.43;38.62;99161.78;4364402;32;32593;-90
2022/04/05 09:01:49;;;;;;;;;;;;;;;13.22;39.22;99156.25;4364557;32;34850;-90
2022/04/05 09:04:17;;;;;;;;;;;;;;;13.47;38.40;99147.87;4364885;32;33976;-90
2022/04/05 09:06:46;;;;;;;;;;;;;;;13.69;38.76;99149.72;4354015;32;34970;-89
2022/04/05 09:09:17;;;;;;;;;;;;;;;13.37;39.16;99159.81;4354029;32;32869;-90
2022/04/05 09:11:49;;;;;;;;;;;;;;;13.70;40.31;99156.72;4365129;32;33788;-90
2022/04/05 09:14:24;;;;;;;;;;;;;;;13.39;40.31;99157.81;4353411;32;33556;-91
2022/04/05 09:17:08;;;;;;;;;;;;;;;13.51;39.53;99156.38;4378207;32;34093;-92
2022/04/05 09:19:42;;;;;;;;;;;;;;;13.35;40.96;99164.50;4377278;32;32630;-89
2022/04/05 09:22:09;;;;;;;;;;;;;;;13.60;41.29;99156.13;4365201;32;34142;-91
2022/04/05 09:24:38;;;;;;;;;;;;;;;13.61;41.07;99160.47;4354514;32;34741;-90
2022/04/05 09:27:06;;;;;;;;;;;;;;;13.23;41.18;99153.38;4377795;32;33694;-89
2022/04/05 09:29:37;;;;;;;;;;;;;;;13.39;41.95;99155.94;4365219;32;32751;-91
2022/04/05 09:32:07;;;;;;;;;;;;;;;13.39;41.68;99153.28;4377850;32;33595;-91
2022/04/05 09:34:54;;;;;;;;;;;;;;;13.29;41.75;99157.19;4377622;32;34621;-90
2022/04/05 09:37:26;;;;;;;;;;;;;;;13.43;42.07;99151.94;4354372;32;34885;-90
2022/04/05 09:39:55;;;;;;;;;;;;;;;13.24;42.21;99154.22;4354363;32;34045;-92
2022/04/05 09:42:22;;;;;;;;;;;;;;;13.19;43.20;99165.44;4377069;32;33558;-91
2022/04/05 09:44:49;;;;;;;;;;;;;;;13.02;42.80;99160.38;4377760;32;35179;-91
2022/04/05 09:47:20;;;;;;;;;;;;;;;13.31;43.11;99168.53;4354176;32;34781;-91
2022/04/05 09:49:49;;;;;;;;;;;;;;;13.21;43.23;99163.41;4364600;32;32866;-90
2022/04/05 09:52:33;;;;;;;;;;;;;;;13.06;42.10;99161.66;4354262;32;34343;-90
2022/04/05 09:55:13;;;;;;;;;;;;;;;13.13;41.62;99157.31;4377187;32;34233;-91
2022/04/05 09:57:41;;;;;;;;;;;;;;;12.92;41.82;99154.37;4377513;32;33871;-89
2022/04/05 10:00:10;;;;;;;;;;;;;;;13.09;41.93;99155.97;4353859;32;33693;-92
2022/04/05 10:02:56;;;;;;;;;;;;;;;13.33;41.63;99153.16;4353866;32;33524;-89
2022/04/05 10:05:24;;;;;;;;;;;;;;;13.29;41.91;99155.34;4365119;32;36761;-90
2022/04/05 10:07:51;;;;;;;;;;;;;;;13.03;42.80;99156.69;4379753;32;35376;-90
2022/04/05 10:10:19;;;;;;;;;;;;;;;13.16;42.85;99160.47;4381854;32;33795;-91
2022/04/05 10:12:47;;;;;;;;;;;;;;;12.90;43.87;99156.38;4381474;32;32434;-90
2022/04/05 10:15:14;;;;;;;;;;;;;;;12.89;43.33;99163.56;4381698;32;36818;-92
2022/04/05 10:17:45;;;;;;;;;;;;;;;12.99;42.53;99160.69;4381696;32;34320;-91
2022/04/05 10:20:16;;;;;;;;;;;;;;;13.21;42.52;99152.72;4368928;32;34036;-89
2022/04/05 10:22:45;;;;;;;;;;;;;;;13.08;43.35;99151.62;4370597;32;34219;-86
2022/04/05 10:25:12;;;;;;;;;;;;;;;13.27;42.54;99144.03;4381172;32;35154;-88
2022/04/05 10:27:39;;;;;;;;;;;;;;;13.45;42.98;99147.25;4381277;32;34795;-85
2022/04/05 10:30:13;;;;;;;;;;;;;;;13.33;42.26;99150.50;4381161;32;32731;-89
2022/04/05 10:32:46;;;;;;;;;;;;;;;13.63;42.03;99149.59;4381118;32;32963;-88
2022/04/05 10:35:15;;;;;;;;;;;;;;;13.71;42.47;99150.38;4371233;32;35626;-88
2022/04/05 10:37:42;;;;;;;;;;;;;;;14.06;42.16;99147.03;4383191;32;34942;-86
2022/04/05 10:40:10;;;;;;;;;;;;;;;14.41;41.60;99140.22;4383958;32;32873;-85
2022/04/05 10:42:51;;;;;;;;;;;;;;;14.59;41.43;99147.69;4381682;32;33577;-89
2022/04/05 10:45:19;;;;;;;;;;;;;;;14.62;40.79;99151.81;4381239;32;33857;-89
2022/04/05 10:48:06;;;;;;;;;;;;;;;14.59;40.74;99146.84;4381564;32;34683;-89
2022/04/05 10:51:00;;;;;;;;;;;;;;;14.91;40.77;99141.94;4382223;32;32513;-86
2022/04/05 10:53:38;;;;;;;;;;;;;;;15.30;39.06;99138.88;4370717;32;34226;-86
2022/04/05 10:56:07;;;;;;;;;;;;;;;14.94;37.57;99141.53;4370490;32;35395;-88
2022/04/05 10:58:35;;;;;;;;;;;;;;;15.43;38.38;99129.16;4369366;32;35001;-86
2022/04/05 11:01:18;;;;;;;;;;;;;;;15.56;35.90;99128.44;4368958;32;32992;-87
2022/04/05 11:04:06;;;;;;;;;;;;;;;15.87;38.38;99131.63;4379878;32;34557;-85
2022/04/05 11:07:10;;;;;;;;;;;;;;;15.53;37.15;99131.50;4368775;32;37152;-86
2022/04/05 11:09:42;;;;;;;;;;;;;;;16.13;36.49;99123.81;4336445;33;34299;-86
2022/04/05 11:12:15;;;;;;;;;;;;;;;16.15;35.96;99121.75;4336811;33;34404;-88
2022/04/05 11:14:45;;;;;;;;;;;;;;;16.44;35.98;99138.47;4337096;33;33939;-85
2022/04/05 11:17:16;;;;;;;;;;;;;;;16.14;36.27;99145.06;4325272;33;33891;-84
2022/04/05 11:19:45;;;;;;;;;;;;;;;16.11;35.62;99141.91;4334293;33;33499;-85
2022/04/05 11:22:35;;;;;;;;;;;;;;;16.11;35.88;99136.56;4315896;33;33949;-87
2022/04/05 11:25:04;;;;;;;;;;;;;;;16.04;35.37;99138.38;4330769;33;33331;-85
2022/04/05 11:27:48;;;;;;;;;;;;;;;16.11;35.81;99134.72;4337108;33;35627;-90
2022/04/05 11:30:37;;;;;;;;;;;;;;;15.81;36.63;99140.44;4335450;33;34344;-87
2022/04/05 11:33:05;;;;;;;;;;;;;;;15.90;36.83;99147.34;4335531;33;33071;-87
2022/04/05 11:35:57;;;;;;;;;;;;;;;16.23;37.29;99137.69;4335944;33;34547;-86
2022/04/05 11:38:26;;;;;;;;;;;;;;;15.99;38.09;99136.28;4334973;33;36128;-85
2022/04/05 11:41:17;;;;;;;;;;;;;;;16.03;37.80;99139.37;4335909;33;34527;-86
2022/04/05 11:43:53;;;;;;;;;;;;;;;16.22;37.96;99142.22;4326093;27;33524;-88
2022/04/05 11:46:23;;;;;;;;;;;;;;;15.67;38.86;99146.72;4381909;32;33763;-92
2022/04/05 11:48:51;;;;;;;;;;;;;;;15.73;39.79;99146.78;4393382;32;33908;-87
2022/04/05 11:51:20;;;;;;;;;;;;;;;15.80;39.87;99146.84;4378247;32;34790;-92
2022/04/05 11:53:48;;;;;;;;;;;;;;;15.91;40.53;99149.84;4383591;32;33327;-93
2022/04/05 11:56:17;;;;;;;;;;;;;;;15.95;39.14;99147.59;4393607;32;34131;-91
2022/04/05 11:58:46;;;;;;;;;;;;;;;15.69;39.07;99153.53;4381946;32;36145;-88
2022/04/05 12:01:16;;;;;;;;;;;;;;;15.65;40.18;99143.38;4394260;32;34757;-90
2022/04/05 12:03:47;;;;;;;;;;;;;;;15.85;40.16;99142.53;4389724;32;34990;-90
2022/04/05 12:06:19;;;;;;;;;;;;;;;15.83;40.59;99155.31;4392080;32;34375;-93
2022/04/05 12:08:47;;;;;;;;;;;;;;;15.80;39.69;99145.00;4391872;32;35592;-94
2022/04/05 12:11:25;;;;;;;;;;;;;;;16.08;39.60;99135.13;4373760;32;33934;-91
2022/04/05 12:13:53;;;;;;;;;;;;;;;15.77;39.49;99141.88;4374965;32;32710;-87
2022/04/05 12:16:21;;;;;;;;;;;;;;;16.03;40.27;99134.00;4377283;32;34028;-88
2022/04/05 12:18:51;;;;;;;;;;;;;;;16.19;38.33;99129.22;4368224;32;34393;-94
2022/04/05 12:21:21;;;;;;;;;;;;;;;16.59;38.33;99133.81;4393244;32;33968;-91
2022/04/05 12:23:49;;;;;;;;;;;;;;;16.66;37.17;99128.47;4396581;32;34379;-92
2022/04/05 12:26:23;;;;;;;;;;;;;;;16.40;38.28;99128.31;4391614;32;33567;-94
2022/04/05 12:28:50;;;;;;;;;;;;;;;16.65;38.12;99132.19;4397191;32;36506;-93
2022/04/05 12:31:19;;;;;;;;;;;;;;;16.27;38.67;99122.84;4395589;32;34596;-93
2022/04/05 12:33:53;;;;;;;;;;;;;;;15.59;39.54;99136.94;4392181;32;32853;-92
2022/04/05 12:36:21;;;;;;;;;;;;;;;16.13;39.69;99129.16;4394464;32;33608;-92
2022/04/05 12:38:49;;;;;;;;;;;;;;;16.23;37.99;99121.59;4399635;32;36459;-94
2022/04/05 12:41:17;;;;;;;;;;;;;;;16.27;38.59;99122.84;4394527;32;34275;-88
2022/04/05 12:43:46;;;;;;;;;;;;;;;16.05;38.56;99126.63;4397760;32;32735;-96
2022/04/05 12:46:14;;;;;;;;;;;;;;;15.99;39.14;99111.28;4381898;32;33912;-92
2022/04/05 12:48:42;;;;;;;;;;;;;;;15.93;38.80;99122.78;4377759;32;34462;-91
2022/04/05 12:51:09;;;;;;;;;;;;;;;16.10;39.26;99119.66;4396164;32;34271;-96
2022/04/05 12:53:40;;;;;;;;;;;;;;;16.57;38.50;99118.94;4396176;32;32518;-95
2022/04/05 12:56:08;;;;;;;;;;;;;;;16.17;38.73;99120.53;4384050;32;32675;-90
2022/04/05 12:58:37;;;;;;;;;;;;;;;16.24;38.33;99105.28;4390882;32;34537;-93
2022/04/05 13:01:14;;;;;;;;;;;;;;;16.40;38.54;99105.00;4394761;32;34797;-94
2022/04/05 13:03:42;;;;;;;;;;;;;;;16.17;38.42;99100.91;4397617;32;32827;-90
2022/04/05 13:06:22;;;;;;;;;;;;;;;16.46;39.28;99106.06;4395782;32;33476;-94